sensor_id;sensor_type;location;lat;lon;timestamp;temperature;humidity
20349;DHT22;10332;50.208;18.988;2023-06-14T00:02:01;11.20;99.90
20349;DHT22;10332;50.208;18.988;2023-06-14T00:04:28;11.30;99.90
20349;DHT22;10332;50.208;18.988;2023-06-14T00:06:58;11.30;99.90
20349;DHT22;10332;50.208;18.988;2023-06-14T00:09:26;11.40;99.90
20349;DHT22;10332;50.208;18.988;2023-06-14T00:11:54;11.40;99.90
20349;DHT22;10332;50.208;18.988;2023-06-14T00:14:21;11.50;99.90
20349;DHT22;10332;50.208;18.988;2023-06-14T00:16:49;11.50;99.90
20349;DHT22;10332;50.208;18.988;2023-06-14T00:19:16;11.50;99.90
20349;DHT22;10332;50.208;18.988;2023-06-14T00:21:44;11.50;99.90
20349;DHT22;10332;50.208;18.988;2023-06-14T00:24:12;11.40;99.90
20349;DHT22;10332;50.208;18.988;2023-06-14T00:26:40;11.40;99.90
20349;DHT22;10332;50.208;18.988;2023-06-14T00:29:07;11.40;99.90
20349;DHT22;10332;50.208;18.988;2023-06-14T00:31:35;11.50;99.90
20349;DHT22;10332;50.208;18.988;2023-06-14T00:34:02;11.50;99.90
20349;DHT22;10332;50.208;18.988;2023-06-14T00:36:29;11.40;99.90
20349;DHT22;10332;50.208;18.988;2023-06-14T00:38:57;11.40;99.90
20349;DHT22;10332;50.208;18.988;2023-06-14T00:41:24;11.50;99.90
20349;DHT22;10332;50.208;18.988;2023-06-14T00:43:52;11.50;99.90
20349;DHT22;10332;50.208;18.988;2023-06-14T00:46:20;11.50;99.90
20349;DHT22;10332;50.208;18.988;2023-06-14T00:48:49;11.50;99.90
20349;DHT22;10332;50.208;18.988;2023-06-14T00:51:17;11.60;99.90
20349;DHT22;10332;50.208;18.988;2023-06-14T00:53:45;11.60;99.90
20349;DHT22;10332;50.208;18.988;2023-06-14T00:56:14;11.60;99.90
20349;DHT22;10332;50.208;18.988;2023-06-14T00:58:43;11.60;99.90
20349;DHT22;10332;50.208;18.988;2023-06-14T01:01:11;11.60;99.90
20349;DHT22;10332;50.208;18.988;2023-06-14T01:03:38;11.60;99.90
20349;DHT22;10332;50.208;18.988;2023-06-14T01:09:17;11.60;99.90
20349;DHT22;10332;50.208;18.988;2023-06-14T01:12:11;11.60;99.90
20349;DHT22;10332;50.208;18.988;2023-06-14T01:14:48;11.60;99.90
20349;DHT22;10332;50.208;18.988;2023-06-14T01:17:17;11.60;99.90
20349;DHT22;10332;50.208;18.988;2023-06-14T01:19:45;11.50;99.90
20349;DHT22;10332;50.208;18.988;2023-06-14T01:22:14;11.50;99.90
20349;DHT22;10332;50.208;18.988;2023-06-14T01:24:42;11.40;99.90
20349;DHT22;10332;50.208;18.988;2023-06-14T01:27:13;11.40;99.90
20349;DHT22;10332;50.208;18.988;2023-06-14T01:29:43;11.40;99.90
20349;DHT22;10332;50.208;18.988;2023-06-14T01:32:13;11.40;99.90
20349;DHT22;10332;50.208;18.988;2023-06-14T01:34:41;11.40;99.90
20349;DHT22;10332;50.208;18.988;2023-06-14T01:37:11;11.40;99.90
20349;DHT22;10332;50.208;18.988;2023-06-14T01:39:42;11.40;99.90
20349;DHT22;10332;50.208;18.988;2023-06-14T01:42:13;11.40;99.90
20349;DHT22;10332;50.208;18.988;2023-06-14T01:44:42;11.40;99.90
20349;DHT22;10332;50.208;18.988;2023-06-14T01:47:11;11.50;99.90
20349;DHT22;10332;50.208;18.988;2023-06-14T01:49:39;11.40;99.90
20349;DHT22;10332;50.208;18.988;2023-06-14T01:52:07;11.50;99.90
20349;DHT22;10332;50.208;18.988;2023-06-14T01:54:37;11.50;99.90
20349;DHT22;10332;50.208;18.988;2023-06-14T01:57:09;11.50;99.90
20349;DHT22;10332;50.208;18.988;2023-06-14T01:59:37;11.50;99.90
20349;DHT22;10332;50.208;18.988;2023-06-14T02:02:05;11.50;99.90
20349;DHT22;10332;50.208;18.988;2023-06-14T02:04:32;11.50;99.90
20349;DHT22;10332;50.208;18.988;2023-06-14T02:07:00;11.50;99.90
20349;DHT22;10332;50.208;18.988;2023-06-14T02:09:27;11.60;99.90
20349;DHT22;10332;50.208;18.988;2023-06-14T02:11:55;11.50;99.90
20349;DHT22;10332;50.208;18.988;2023-06-14T02:14:23;11.50;99.90
20349;DHT22;10332;50.208;18.988;2023-06-14T02:16:50;11.50;99.90
20349;DHT22;10332;50.208;18.988;2023-06-14T02:19:19;11.60;99.90
20349;DHT22;10332;50.208;18.988;2023-06-14T02:21:47;11.60;99.90
20349;DHT22;10332;50.208;18.988;2023-06-14T02:24:15;11.70;99.90
20349;DHT22;10332;50.208;18.988;2023-06-14T02:26:43;11.70;99.90
20349;DHT22;10332;50.208;18.988;2023-06-14T02:29:10;11.80;99.90
20349;DHT22;10332;50.208;18.988;2023-06-14T02:31:40;11.80;99.90
20349;DHT22;10332;50.208;18.988;2023-06-14T02:34:08;11.90;99.90
20349;DHT22;10332;50.208;18.988;2023-06-14T02:36:37;11.90;99.90
20349;DHT22;10332;50.208;18.988;2023-06-14T02:39:09;11.90;99.90
20349;DHT22;10332;50.208;18.988;2023-06-14T02:41:38;11.90;99.90
20349;DHT22;10332;50.208;18.988;2023-06-14T02:44:06;11.90;99.90
20349;DHT22;10332;50.208;18.988;2023-06-14T02:46:33;12.00;99.90
20349;DHT22;10332;50.208;18.988;2023-06-14T02:49:01;12.00;99.90
20349;DHT22;10332;50.208;18.988;2023-06-14T02:51:29;12.00;99.90
20349;DHT22;10332;50.208;18.988;2023-06-14T02:53:56;12.00;99.90
20349;DHT22;10332;50.208;18.988;2023-06-14T02:56:24;12.10;99.90
20349;DHT22;10332;50.208;18.988;2023-06-14T02:58:53;12.10;99.90
20349;DHT22;10332;50.208;18.988;2023-06-14T03:01:21;12.10;99.90
20349;DHT22;10332;50.208;18.988;2023-06-14T03:03:48;12.10;99.90
20349;DHT22;10332;50.208;18.988;2023-06-14T03:06:16;12.20;99.90
20349;DHT22;10332;50.208;18.988;2023-06-14T03:08:44;12.20;99.90
20349;DHT22;10332;50.208;18.988;2023-06-14T03:11:12;12.20;99.90
20349;DHT22;10332;50.208;18.988;2023-06-14T03:13:39;12.30;99.90
20349;DHT22;10332;50.208;18.988;2023-06-14T03:16:08;12.40;99.90
20349;DHT22;10332;50.208;18.988;2023-06-14T03:18:36;12.40;99.90
20349;DHT22;10332;50.208;18.988;2023-06-14T03:21:04;12.50;99.90
20349;DHT22;10332;50.208;18.988;2023-06-14T03:23:31;12.50;99.90
20349;DHT22;10332;50.208;18.988;2023-06-14T03:25:59;12.50;99.90
20349;DHT22;10332;50.208;18.988;2023-06-14T03:28:26;12.60;99.90
20349;DHT22;10332;50.208;18.988;2023-06-14T03:30:55;12.70;99.90
20349;DHT22;10332;50.208;18.988;2023-06-14T03:33:22;12.70;99.90
20349;DHT22;10332;50.208;18.988;2023-06-14T03:35:52;12.70;99.90
20349;DHT22;10332;50.208;18.988;2023-06-14T03:38:20;12.80;99.90
20349;DHT22;10332;50.208;18.988;2023-06-14T03:40:47;12.80;99.90
20349;DHT22;10332;50.208;18.988;2023-06-14T03:43:15;12.90;99.90
20349;DHT22;10332;50.208;18.988;2023-06-14T03:45:42;12.90;99.90
20349;DHT22;10332;50.208;18.988;2023-06-14T03:48:09;12.90;99.90
20349;DHT22;10332;50.208;18.988;2023-06-14T03:50:38;12.90;99.90
20349;DHT22;10332;50.208;18.988;2023-06-14T03:53:06;13.00;99.90
20349;DHT22;10332;50.208;18.988;2023-06-14T03:55:34;13.10;99.90
20349;DHT22;10332;50.208;18.988;2023-06-14T03:58:04;13.20;99.90
20349;DHT22;10332;50.208;18.988;2023-06-14T04:00:32;13.40;99.90
20349;DHT22;10332;50.208;18.988;2023-06-14T04:02:59;13.50;99.90
20349;DHT22;10332;50.208;18.988;2023-06-14T04:05:28;13.60;99.90
20349;DHT22;10332;50.208;18.988;2023-06-14T04:07:55;13.70;99.90
20349;DHT22;10332;50.208;18.988;2023-06-14T04:10:24;13.70;99.90
20349;DHT22;10332;50.208;18.988;2023-06-14T04:12:51;13.70;99.90
20349;DHT22;10332;50.208;18.988;2023-06-14T04:15:19;13.70;99.90
20349;DHT22;10332;50.208;18.988;2023-06-14T04:17:48;13.70;99.90
20349;DHT22;10332;50.208;18.988;2023-06-14T04:20:16;13.70;99.90
20349;DHT22;10332;50.208;18.988;2023-06-14T04:22:44;13.70;99.90
20349;DHT22;10332;50.208;18.988;2023-06-14T04:25:11;13.80;99.80
20349;DHT22;10332;50.208;18.988;2023-06-14T04:27:39;13.80;99.70
20349;DHT22;10332;50.208;18.988;2023-06-14T04:30:07;13.90;99.90
20349;DHT22;10332;50.208;18.988;2023-06-14T04:32:35;13.90;99.90
20349;DHT22;10332;50.208;18.988;2023-06-14T04:35:07;13.90;99.90
20349;DHT22;10332;50.208;18.988;2023-06-14T04:37:35;13.90;99.90
20349;DHT22;10332;50.208;18.988;2023-06-14T04:40:07;14.00;99.90
20349;DHT22;10332;50.208;18.988;2023-06-14T04:42:38;14.00;99.90
20349;DHT22;10332;50.208;18.988;2023-06-14T04:45:08;14.10;99.90
20349;DHT22;10332;50.208;18.988;2023-06-14T04:47:36;14.20;99.90
20349;DHT22;10332;50.208;18.988;2023-06-14T04:50:05;14.20;99.90
20349;DHT22;10332;50.208;18.988;2023-06-14T04:52:32;14.20;99.90
20349;DHT22;10332;50.208;18.988;2023-06-14T04:55:00;14.30;99.90
20349;DHT22;10332;50.208;18.988;2023-06-14T04:57:28;14.40;99.90
20349;DHT22;10332;50.208;18.988;2023-06-14T04:59:56;14.40;99.90
20349;DHT22;10332;50.208;18.988;2023-06-14T05:02:25;14.40;99.90
20349;DHT22;10332;50.208;18.988;2023-06-14T05:04:53;14.50;99.80
20349;DHT22;10332;50.208;18.988;2023-06-14T05:07:20;14.50;99.90
20349;DHT22;10332;50.208;18.988;2023-06-14T05:09:51;14.50;99.90
20349;DHT22;10332;50.208;18.988;2023-06-14T05:12:18;14.40;99.90
20349;DHT22;10332;50.208;18.988;2023-06-14T05:14:46;14.40;99.90
20349;DHT22;10332;50.208;18.988;2023-06-14T05:17:14;14.30;99.90
20349;DHT22;10332;50.208;18.988;2023-06-14T05:19:44;14.30;99.90
20349;DHT22;10332;50.208;18.988;2023-06-14T05:22:11;14.40;99.90
20349;DHT22;10332;50.208;18.988;2023-06-14T05:24:39;14.40;99.90
20349;DHT22;10332;50.208;18.988;2023-06-14T05:27:06;14.40;99.90
20349;DHT22;10332;50.208;18.988;2023-06-14T05:29:34;14.40;99.90
20349;DHT22;10332;50.208;18.988;2023-06-14T05:32:01;14.50;99.90
20349;DHT22;10332;50.208;18.988;2023-06-14T05:34:29;14.60;99.90
20349;DHT22;10332;50.208;18.988;2023-06-14T05:36:56;14.70;99.90
20349;DHT22;10332;50.208;18.988;2023-06-14T05:39:24;14.70;99.90
20349;DHT22;10332;50.208;18.988;2023-06-14T05:41:51;14.80;99.90
20349;DHT22;10332;50.208;18.988;2023-06-14T05:44:19;14.80;99.90
20349;DHT22;10332;50.208;18.988;2023-06-14T05:46:47;14.90;99.90
20349;DHT22;10332;50.208;18.988;2023-06-14T05:49:15;15.00;99.90
20349;DHT22;10332;50.208;18.988;2023-06-14T05:51:42;15.10;99.90
20349;DHT22;10332;50.208;18.988;2023-06-14T05:54:10;15.20;99.90
20349;DHT22;10332;50.208;18.988;2023-06-14T05:56:37;15.30;99.90
20349;DHT22;10332;50.208;18.988;2023-06-14T05:59:05;15.30;99.60
20349;DHT22;10332;50.208;18.988;2023-06-14T06:01:32;15.40;99.40
20349;DHT22;10332;50.208;18.988;2023-06-14T06:04:01;15.40;99.00
20349;DHT22;10332;50.208;18.988;2023-06-14T06:06:28;15.40;98.70
20349;DHT22;10332;50.208;18.988;2023-06-14T06:08:56;15.40;98.90
20349;DHT22;10332;50.208;18.988;2023-06-14T06:11:24;15.30;99.50
20349;DHT22;10332;50.208;18.988;2023-06-14T06:13:52;15.30;99.60
20349;DHT22;10332;50.208;18.988;2023-06-14T06:16:20;15.30;99.50
20349;DHT22;10332;50.208;18.988;2023-06-14T06:18:47;15.30;99.60
20349;DHT22;10332;50.208;18.988;2023-06-14T06:21:15;15.30;99.70
20349;DHT22;10332;50.208;18.988;2023-06-14T06:23:43;15.20;99.90
20349;DHT22;10332;50.208;18.988;2023-06-14T06:26:10;15.20;99.90
20349;DHT22;10332;50.208;18.988;2023-06-14T06:28:38;15.20;99.90
20349;DHT22;10332;50.208;18.988;2023-06-14T06:31:05;15.20;99.90
20349;DHT22;10332;50.208;18.988;2023-06-14T06:33:33;15.20;99.90
20349;DHT22;10332;50.208;18.988;2023-06-14T06:36:00;15.20;99.90
20349;DHT22;10332;50.208;18.988;2023-06-14T06:38:28;15.20;99.90
20349;DHT22;10332;50.208;18.988;2023-06-14T06:40:56;15.10;99.90
20349;DHT22;10332;50.208;18.988;2023-06-14T06:43:24;15.10;99.90
20349;DHT22;10332;50.208;18.988;2023-06-14T06:45:51;15.10;99.90
20349;DHT22;10332;50.208;18.988;2023-06-14T06:48:19;15.10;99.90
20349;DHT22;10332;50.208;18.988;2023-06-14T06:50:47;15.10;99.90
20349;DHT22;10332;50.208;18.988;2023-06-14T06:53:14;15.10;99.90
20349;DHT22;10332;50.208;18.988;2023-06-14T06:55:46;15.00;99.90
20349;DHT22;10332;50.208;18.988;2023-06-14T06:58:14;15.10;99.90
20349;DHT22;10332;50.208;18.988;2023-06-14T07:00:42;15.10;99.90
20349;DHT22;10332;50.208;18.988;2023-06-14T07:03:09;15.10;99.90
20349;DHT22;10332;50.208;18.988;2023-06-14T07:05:37;15.20;99.90
20349;DHT22;10332;50.208;18.988;2023-06-14T07:08:05;15.30;99.90
20349;DHT22;10332;50.208;18.988;2023-06-14T07:10:32;15.40;99.90
20349;DHT22;10332;50.208;18.988;2023-06-14T07:13:00;15.50;99.90
20349;DHT22;10332;50.208;18.988;2023-06-14T07:15:28;15.60;99.90
20349;DHT22;10332;50.208;18.988;2023-06-14T07:17:55;15.50;99.90
20349;DHT22;10332;50.208;18.988;2023-06-14T07:20:27;15.50;99.90
20349;DHT22;10332;50.208;18.988;2023-06-14T07:22:55;15.50;99.90
20349;DHT22;10332;50.208;18.988;2023-06-14T07:25:22;15.40;99.90
20349;DHT22;10332;50.208;18.988;2023-06-14T07:27:50;15.40;99.90
20349;DHT22;10332;50.208;18.988;2023-06-14T07:30:17;15.40;99.90
20349;DHT22;10332;50.208;18.988;2023-06-14T07:32:45;15.40;99.90
20349;DHT22;10332;50.208;18.988;2023-06-14T07:35:12;15.30;99.90
20349;DHT22;10332;50.208;18.988;2023-06-14T07:37:41;15.30;99.90
20349;DHT22;10332;50.208;18.988;2023-06-14T07:40:08;15.40;99.90
20349;DHT22;10332;50.208;18.988;2023-06-14T07:42:37;15.40;99.90
20349;DHT22;10332;50.208;18.988;2023-06-14T07:45:05;15.50;99.90
20349;DHT22;10332;50.208;18.988;2023-06-14T07:47:33;15.50;99.90
20349;DHT22;10332;50.208;18.988;2023-06-14T07:50:01;15.50;99.90
20349;DHT22;10332;50.208;18.988;2023-06-14T07:52:30;15.50;99.90
20349;DHT22;10332;50.208;18.988;2023-06-14T07:54:58;15.40;99.90
20349;DHT22;10332;50.208;18.988;2023-06-14T07:57:25;15.50;99.90
20349;DHT22;10332;50.208;18.988;2023-06-14T07:59:53;15.60;99.90
20349;DHT22;10332;50.208;18.988;2023-06-14T08:02:20;15.70;99.90
20349;DHT22;10332;50.208;18.988;2023-06-14T08:04:48;15.80;99.90
20349;DHT22;10332;50.208;18.988;2023-06-14T08:07:16;15.80;99.90
20349;DHT22;10332;50.208;18.988;2023-06-14T08:09:43;15.80;99.90
20349;DHT22;10332;50.208;18.988;2023-06-14T08:12:11;15.80;99.90
20349;DHT22;10332;50.208;18.988;2023-06-14T08:14:39;15.80;99.90
20349;DHT22;10332;50.208;18.988;2023-06-14T08:17:09;15.80;99.90
20349;DHT22;10332;50.208;18.988;2023-06-14T08:19:37;15.70;99.90
20349;DHT22;10332;50.208;18.988;2023-06-14T08:22:05;15.70;99.90
20349;DHT22;10332;50.208;18.988;2023-06-14T08:24:32;15.70;99.90
20349;DHT22;10332;50.208;18.988;2023-06-14T08:27:02;15.70;99.90
20349;DHT22;10332;50.208;18.988;2023-06-14T08:29:30;15.70;99.90
20349;DHT22;10332;50.208;18.988;2023-06-14T08:31:58;16.00;99.90
20349;DHT22;10332;50.208;18.988;2023-06-14T08:34:25;16.40;99.90
20349;DHT22;10332;50.208;18.988;2023-06-14T08:36:53;16.90;97.00
20349;DHT22;10332;50.208;18.988;2023-06-14T08:39:21;17.20;96.30
20349;DHT22;10332;50.208;18.988;2023-06-14T08:41:50;17.50;93.40
20349;DHT22;10332;50.208;18.988;2023-06-14T08:44:19;17.60;90.10
20349;DHT22;10332;50.208;18.988;2023-06-14T08:46:48;17.60;83.80
20349;DHT22;10332;50.208;18.988;2023-06-14T08:49:16;17.50;86.50
20349;DHT22;10332;50.208;18.988;2023-06-14T08:51:45;17.50;86.30
20349;DHT22;10332;50.208;18.988;2023-06-14T08:54:15;17.30;86.70
20349;DHT22;10332;50.208;18.988;2023-06-14T08:56:43;17.20;87.50
20349;DHT22;10332;50.208;18.988;2023-06-14T08:59:11;17.10;89.60
20349;DHT22;10332;50.208;18.988;2023-06-14T09:01:39;17.00;90.30
20349;DHT22;10332;50.208;18.988;2023-06-14T09:04:18;16.90;90.00
20349;DHT22;10332;50.208;18.988;2023-06-14T09:06:47;16.80;90.90
20349;DHT22;10332;50.208;18.988;2023-06-14T09:09:20;16.70;91.60
20349;DHT22;10332;50.208;18.988;2023-06-14T09:11:50;16.80;92.50
20349;DHT22;10332;50.208;18.988;2023-06-14T09:14:21;16.80;92.20
20349;DHT22;10332;50.208;18.988;2023-06-14T09:16:56;16.80;92.60
20349;DHT22;10332;50.208;18.988;2023-06-14T09:19:24;16.80;92.70
20349;DHT22;10332;50.208;18.988;2023-06-14T09:21:52;16.90;92.90
20349;DHT22;10332;50.208;18.988;2023-06-14T09:24:20;16.90;92.70
20349;DHT22;10332;50.208;18.988;2023-06-14T09:26:55;16.90;92.80
20349;DHT22;10332;50.208;18.988;2023-06-14T09:29:22;16.90;92.60
20349;DHT22;10332;50.208;18.988;2023-06-14T09:31:51;17.10;92.50
20349;DHT22;10332;50.208;18.988;2023-06-14T09:34:18;17.30;91.80
20349;DHT22;10332;50.208;18.988;2023-06-14T09:36:50;17.50;91.30
20349;DHT22;10332;50.208;18.988;2023-06-14T09:39:18;17.60;90.60
20349;DHT22;10332;50.208;18.988;2023-06-14T09:41:46;17.50;90.50
20349;DHT22;10332;50.208;18.988;2023-06-14T09:44:13;17.50;90.50
20349;DHT22;10332;50.208;18.988;2023-06-14T09:46:48;17.40;90.60
20349;DHT22;10332;50.208;18.988;2023-06-14T09:49:16;17.30;90.80
20349;DHT22;10332;50.208;18.988;2023-06-14T09:51:45;17.20;90.90
20349;DHT22;10332;50.208;18.988;2023-06-14T09:54:22;17.20;91.30
20349;DHT22;10332;50.208;18.988;2023-06-14T09:56:53;17.10;91.30
20349;DHT22;10332;50.208;18.988;2023-06-14T09:59:26;17.10;91.10
20349;DHT22;10332;50.208;18.988;2023-06-14T10:02:00;17.00;91.40
20349;DHT22;10332;50.208;18.988;2023-06-14T10:04:37;16.90;92.50
20349;DHT22;10332;50.208;18.988;2023-06-14T10:07:07;16.90;92.20
20349;DHT22;10332;50.208;18.988;2023-06-14T10:09:35;16.80;91.50
20349;DHT22;10332;50.208;18.988;2023-06-14T10:12:03;16.70;92.10
20349;DHT22;10332;50.208;18.988;2023-06-14T10:14:32;16.60;92.70
20349;DHT22;10332;50.208;18.988;2023-06-14T10:17:06;16.60;93.40
20349;DHT22;10332;50.208;18.988;2023-06-14T10:19:44;16.60;93.70
20349;DHT22;10332;50.208;18.988;2023-06-14T10:22:30;16.60;94.20
20349;DHT22;10332;50.208;18.988;2023-06-14T10:25:02;16.70;94.10
20349;DHT22;10332;50.208;18.988;2023-06-14T10:27:35;16.90;93.70
20349;DHT22;10332;50.208;18.988;2023-06-14T10:30:04;17.10;93.00
20349;DHT22;10332;50.208;18.988;2023-06-14T10:32:34;17.20;92.00
20349;DHT22;10332;50.208;18.988;2023-06-14T10:35:06;17.30;91.30
20349;DHT22;10332;50.208;18.988;2023-06-14T10:37:34;17.50;90.50
20349;DHT22;10332;50.208;18.988;2023-06-14T10:40:03;18.00;89.20
20349;DHT22;10332;50.208;18.988;2023-06-14T10:42:33;18.80;85.40
20349;DHT22;10332;50.208;18.988;2023-06-14T10:45:01;19.60;77.40
20349;DHT22;10332;50.208;18.988;2023-06-14T10:47:33;20.50;72.40
20349;DHT22;10332;50.208;18.988;2023-06-14T10:50:08;21.00;61.10
20349;DHT22;10332;50.208;18.988;2023-06-14T10:52:39;21.80;55.10
20349;DHT22;10332;50.208;18.988;2023-06-14T10:55:16;22.10;50.70
20349;DHT22;10332;50.208;18.988;2023-06-14T10:57:54;22.20;47.20
20349;DHT22;10332;50.208;18.988;2023-06-14T11:00:28;22.00;37.80
20349;DHT22;10332;50.208;18.988;2023-06-14T11:05:54;21.80;40.90
20349;DHT22;10332;50.208;18.988;2023-06-14T11:11:36;21.70;29.90
20349;DHT22;10332;50.208;18.988;2023-06-14T11:14:06;21.60;35.00
20349;DHT22;10332;50.208;18.988;2023-06-14T11:16:33;21.30;34.40
20349;DHT22;10332;50.208;18.988;2023-06-14T11:19:02;21.10;35.70
20349;DHT22;10332;50.208;18.988;2023-06-14T11:21:33;21.20;38.70
20349;DHT22;10332;50.208;18.988;2023-06-14T11:24:00;21.30;37.60
20349;DHT22;10332;50.208;18.988;2023-06-14T11:26:29;21.60;36.80
20349;DHT22;10332;50.208;18.988;2023-06-14T11:28:59;21.70;36.00
20349;DHT22;10332;50.208;18.988;2023-06-14T11:31:28;21.80;30.40
20349;DHT22;10332;50.208;18.988;2023-06-14T11:33:58;22.00;30.50
20349;DHT22;10332;50.208;18.988;2023-06-14T11:36:30;22.00;28.80
20349;DHT22;10332;50.208;18.988;2023-06-14T11:39:00;22.10;31.80
20349;DHT22;10332;50.208;18.988;2023-06-14T11:41:44;22.20;32.10
20349;DHT22;10332;50.208;18.988;2023-06-14T11:44:12;22.20;28.70
20349;DHT22;10332;50.208;18.988;2023-06-14T11:46:40;22.30;32.70
20349;DHT22;10332;50.208;18.988;2023-06-14T11:49:08;22.60;29.70
20349;DHT22;10332;50.208;18.988;2023-06-14T11:51:36;22.80;28.00
20349;DHT22;10332;50.208;18.988;2023-06-14T11:54:06;22.80;30.00
20349;DHT22;10332;50.208;18.988;2023-06-14T11:56:34;22.80;26.30
20349;DHT22;10332;50.208;18.988;2023-06-14T11:59:03;22.40;27.20
20349;DHT22;10332;50.208;18.988;2023-06-14T12:01:36;22.10;29.00
20349;DHT22;10332;50.208;18.988;2023-06-14T12:04:06;21.90;30.50
20349;DHT22;10332;50.208;18.988;2023-06-14T12:06:34;21.80;32.10
20349;DHT22;10332;50.208;18.988;2023-06-14T12:09:07;21.70;33.30
20349;DHT22;10332;50.208;18.988;2023-06-14T12:11:41;21.70;34.60
20349;DHT22;10332;50.208;18.988;2023-06-14T12:14:09;21.70;35.00
20349;DHT22;10332;50.208;18.988;2023-06-14T12:16:39;21.60;36.30
20349;DHT22;10332;50.208;18.988;2023-06-14T12:19:14;21.50;36.30
20349;DHT22;10332;50.208;18.988;2023-06-14T12:21:46;21.50;37.30
20349;DHT22;10332;50.208;18.988;2023-06-14T12:24:19;21.40;38.50
20349;DHT22;10332;50.208;18.988;2023-06-14T12:26:47;21.40;39.40
20349;DHT22;10332;50.208;18.988;2023-06-14T12:29:14;21.40;40.10
20349;DHT22;10332;50.208;18.988;2023-06-14T12:31:42;21.40;40.80
20349;DHT22;10332;50.208;18.988;2023-06-14T12:34:10;21.50;39.20
20349;DHT22;10332;50.208;18.988;2023-06-14T12:36:38;21.40;39.70
20349;DHT22;10332;50.208;18.988;2023-06-14T12:39:12;21.60;39.80
20349;DHT22;10332;50.208;18.988;2023-06-14T12:41:40;21.70;39.10
20349;DHT22;10332;50.208;18.988;2023-06-14T12:44:12;21.80;37.70
20349;DHT22;10332;50.208;18.988;2023-06-14T12:46:43;21.90;36.80
20349;DHT22;10332;50.208;18.988;2023-06-14T12:49:11;22.10;37.60
20349;DHT22;10332;50.208;18.988;2023-06-14T12:51:40;22.30;35.80
20349;DHT22;10332;50.208;18.988;2023-06-14T12:54:07;22.40;33.20
20349;DHT22;10332;50.208;18.988;2023-06-14T12:56:35;22.40;30.70
20349;DHT22;10332;50.208;18.988;2023-06-14T12:59:03;22.40;28.80
20349;DHT22;10332;50.208;18.988;2023-06-14T13:01:31;22.40;28.10
20349;DHT22;10332;50.208;18.988;2023-06-14T13:03:58;22.50;28.60
20349;DHT22;10332;50.208;18.988;2023-06-14T13:06:26;22.70;28.50
20349;DHT22;10332;50.208;18.988;2023-06-14T13:08:53;22.80;27.80
20349;DHT22;10332;50.208;18.988;2023-06-14T13:11:28;23.00;23.40
20349;DHT22;10332;50.208;18.988;2023-06-14T13:13:55;23.10;19.40
20349;DHT22;10332;50.208;18.988;2023-06-14T13:16:23;23.20;13.30
20349;DHT22;10332;50.208;18.988;2023-06-14T13:18:51;23.20;13.80
20349;DHT22;10332;50.208;18.988;2023-06-14T13:21:18;23.10;14.00
20349;DHT22;10332;50.208;18.988;2023-06-14T13:23:46;23.00;12.70
20349;DHT22;10332;50.208;18.988;2023-06-14T13:26:13;22.80;5.50
20349;DHT22;10332;50.208;18.988;2023-06-14T13:28:42;22.80;7.80
20349;DHT22;10332;50.208;18.988;2023-06-14T13:31:09;22.80;1.60
20349;DHT22;10332;50.208;18.988;2023-06-14T13:33:37;22.70;1.00
20349;DHT22;10332;50.208;18.988;2023-06-14T13:36:06;22.70;1.00
20349;DHT22;10332;50.208;18.988;2023-06-14T13:38:34;22.60;1.00
20349;DHT22;10332;50.208;18.988;2023-06-14T13:41:02;22.70;1.00
20349;DHT22;10332;50.208;18.988;2023-06-14T13:43:29;22.60;1.00
20349;DHT22;10332;50.208;18.988;2023-06-14T13:45:57;22.70;1.00
20349;DHT22;10332;50.208;18.988;2023-06-14T13:48:24;22.70;1.00
20349;DHT22;10332;50.208;18.988;2023-06-14T13:50:52;22.70;1.00
20349;DHT22;10332;50.208;18.988;2023-06-14T13:53:20;22.60;1.00
20349;DHT22;10332;50.208;18.988;2023-06-14T13:55:47;22.60;1.00
20349;DHT22;10332;50.208;18.988;2023-06-14T13:58:15;22.50;1.00
20349;DHT22;10332;50.208;18.988;2023-06-14T14:00:43;22.50;1.00
20349;DHT22;10332;50.208;18.988;2023-06-14T14:03:11;22.50;1.00
20349;DHT22;10332;50.208;18.988;2023-06-14T14:05:39;22.40;1.00
20349;DHT22;10332;50.208;18.988;2023-06-14T14:08:07;22.40;2.20
20349;DHT22;10332;50.208;18.988;2023-06-14T14:10:34;22.50;2.20
20349;DHT22;10332;50.208;18.988;2023-06-14T14:13:02;22.50;3.80
20349;DHT22;10332;50.208;18.988;2023-06-14T14:15:29;22.40;4.60
20349;DHT22;10332;50.208;18.988;2023-06-14T14:17:57;22.30;6.70
20349;DHT22;10332;50.208;18.988;2023-06-14T14:20:25;22.30;8.70
20349;DHT22;10332;50.208;18.988;2023-06-14T14:22:52;22.30;13.40
20349;DHT22;10332;50.208;18.988;2023-06-14T14:25:20;22.40;15.00
20349;DHT22;10332;50.208;18.988;2023-06-14T14:27:47;22.40;15.10
20349;DHT22;10332;50.208;18.988;2023-06-14T14:30:15;22.50;15.20
20349;DHT22;10332;50.208;18.988;2023-06-14T14:32:44;22.40;13.30
20349;DHT22;10332;50.208;18.988;2023-06-14T14:35:12;22.20;14.50
20349;DHT22;10332;50.208;18.988;2023-06-14T14:37:39;22.00;15.30
20349;DHT22;10332;50.208;18.988;2023-06-14T14:40:07;21.80;13.80
20349;DHT22;10332;50.208;18.988;2023-06-14T14:42:36;21.60;15.20
20349;DHT22;10332;50.208;18.988;2023-06-14T14:45:05;21.50;17.20
20349;DHT22;10332;50.208;18.988;2023-06-14T14:47:33;21.50;18.80
20349;DHT22;10332;50.208;18.988;2023-06-14T14:50:00;21.40;18.40
20349;DHT22;10332;50.208;18.988;2023-06-14T14:52:28;21.30;20.40
20349;DHT22;10332;50.208;18.988;2023-06-14T14:54:55;21.20;22.40
20349;DHT22;10332;50.208;18.988;2023-06-14T14:57:23;21.10;24.30
20349;DHT22;10332;50.208;18.988;2023-06-14T14:59:50;21.10;25.30
20349;DHT22;10332;50.208;18.988;2023-06-14T15:02:18;21.10;25.80
20349;DHT22;10332;50.208;18.988;2023-06-14T15:04:46;21.00;25.80
20349;DHT22;10332;50.208;18.988;2023-06-14T15:07:13;21.00;26.40
20349;DHT22;10332;50.208;18.988;2023-06-14T15:09:41;21.00;26.50
20349;DHT22;10332;50.208;18.988;2023-06-14T15:12:09;21.00;26.00
20349;DHT22;10332;50.208;18.988;2023-06-14T15:14:38;21.10;24.00
20349;DHT22;10332;50.208;18.988;2023-06-14T15:17:06;21.00;25.00
20349;DHT22;10332;50.208;18.988;2023-06-14T15:19:34;21.00;26.20
20349;DHT22;10332;50.208;18.988;2023-06-14T15:22:03;21.00;27.20
20349;DHT22;10332;50.208;18.988;2023-06-14T15:24:33;21.10;27.60
20349;DHT22;10332;50.208;18.988;2023-06-14T15:27:11;21.20;24.80
20349;DHT22;10332;50.208;18.988;2023-06-14T15:29:42;21.20;22.40
20349;DHT22;10332;50.208;18.988;2023-06-14T15:32:09;21.20;21.80
20349;DHT22;10332;50.208;18.988;2023-06-14T15:34:38;21.00;21.10
20349;DHT22;10332;50.208;18.988;2023-06-14T15:37:06;20.90;23.10